x

8452951 - Potter Cove, Prudence Island, Ri (ptcr1) Weather Station

10:54 - Tue 28th Mar 2017 All times are EDT. -4 hours from GMT.

  • Wind
    6mph, 7mph gusts
  • Luft Temp 40°f
  • Sea Pressure 1017.2mb
  • 8452951 - Potter Cove, Prudence Island, Ri
  • 8452951 - Potter Cove, Prudence Island, Ri

More Historic Weather Station data

Upgrade to MSW Pro to gain access to the past 30 days of data for over 8000 Wavebouys and Weather Stations around the globe.

Join Pro

Comparision Forecast

View Surf forecast
   
Di 03/28 10:54 6 7 mph 1017.2mb 40f
10:48 6 7 mph 1017mb 39f
10:42 8 10 mph 1017mb 40f
10:36 7 9 mph 1016.9mb 40f
10:30 8 10 mph 1016.9mb 40f
10:12 7 9 mph 1017.3mb 39f
10:06 7 8 mph 1017.3mb 39f
10:00 7 8 mph 1017.5mb 39f
9:54 7 8 mph 1017.4mb 39f
9:48 6 8 mph 1017.5mb 39f
9:36 6 7 mph 1017.5mb 39f
9:30 5 7 mph 1017.6mb 39f
9:24 5 6 mph 1017.5mb 39f
9:12 5 6 mph 1017.5mb 39f
9:06 5 6 mph 1017.5mb 39f
9:00 5 6 mph 1017.5mb 39f
8:54 3 6 mph 1017.6mb 39f
8:48 5 6 mph 1017.5mb 39f
8:36 6
mph
1017.5mb 39f
8:30 5 6 mph 1017.4mb 38f
8:24 5 7 mph 1017.4mb 38f
8:18 6 8 mph 1017.3mb 38f
8:12 5 7 mph 1017.4mb 38f
8:06 3 5 mph 1017.5mb 38f
8:00 1 3 mph 1017.7mb 38f
7:54 2 3 mph 1017.8mb 38f
7:48 3 6 mph 1017.7mb 38f
7:42 5 6 mph 1017.4mb 38f
7:36 7 8 mph 1017.4mb 38f
7:30 7 9 mph 1017.1mb 38f
7:24 7 9 mph 1017.1mb 38f
7:18 8 9 mph 1017.1mb 38f
7:12 7 9 mph 1016.8mb 38f
7:06 7 9 mph 1016.8mb 38f
7:00 6 8 mph 1016.8mb 38f
6:54 5 7 mph 1016.9mb 38f
6:48 5 6 mph 1016.9mb 39f
6:42 6 7 mph 1017mb 39f
6:36 6 7 mph 1016.9mb 39f
6:30 6 8 mph 1017.1mb 39f
6:24 7 9 mph 1016.8mb 39f
6:18 8 10 mph 1016.7mb 39f
6:12 9 11 mph 1016.5mb 39f
6:06 7 9 mph 1016.5mb 39f
6:00 8 10 mph 1016.5mb 39f
5:54 8 10 mph 1016.4mb 39f
5:48 6 8 mph 1016.5mb 39f
5:42 7 8 mph 1016.5mb 39f
5:36 7 9 mph 1016.3mb 39f
5:30 7 9 mph 1016.2mb 39f
5:24 8 10 mph 1016.2mb 39f
5:18 5 7 mph 1016.1mb 39f
5:12 1 2 mph 1016.4mb 39f
5:06 3 5 mph 1016.5mb 39f
5:00 3 6 mph 1016.3mb 39f
4:54 1 5 mph 1016.3mb 39f
4:48 6 7 mph 1016.3mb 39f
4:42 6 7 mph 1015.9mb 39f
4:36 5 6 mph 1016mb 39f
4:30 6
mph
1016.1mb 39f
4:24 5 6 mph 1016.2mb 40f
4:18 7 8 mph 1016.3mb 40f
4:12 7 9 mph 1016mb 40f
4:06 7 9 mph 1016mb 40f
4:00 7 9 mph 1016.2mb 40f
3:54 7 10 mph 1016.3mb 40f
3:48 9 11 mph - -
3:42 7 9 mph 1016.2mb 40f
3:36 8 9 mph 1016.3mb 40f
3:30 8 10 mph 1016.4mb 40f
3:24 8 10 mph 1016.4mb 40f
3:18 7 9 mph 1016.4mb 40f
3:12 6 8 mph 1016.5mb 40f
3:06 6 7 mph 1016.7mb 40f
3:00 6 7 mph 1016.7mb 40f
2:54 5 6 mph 1016.8mb 40f
2:48 5 6 mph 1016.9mb 40f
2:42 3 5 mph 1016.9mb 40f
2:36 3 6 mph 1016.9mb 40f
2:30 5 6 mph 1016.9mb 40f
2:24 3 5 mph 1017mb 40f
2:18 5 6 mph 1017mb 40f
2:12 5 6 mph 1017mb 40f
2:06 3 6 mph 1017mb 40f
2:00 5 6 mph 1017mb 40f
1:54 5 6 mph 1017mb 40f
1:48 5 6 mph 1017mb 40f
1:42 6 7 mph 1017.2mb 40f
1:36 6
mph
1017.2mb 40f
1:30 5 6 mph 1017.3mb 40f
1:24 6 7 mph 1017.5mb 40f
1:18 5 7 mph 1017.5mb 40f
1:12 6 8 mph 1017.5mb 40f
1:06 7 9 mph 1017.3mb 40f
1:00 7 9 mph 1017.3mb 40f
12:54 6 7 mph 1017.2mb 40f
12:48 5 6 mph 1017.5mb 40f
12:42 2 5 mph 1017.6mb 40f
12:36 2 3 mph 1017.6mb 40f
12:30 3 6 mph 1017.7mb 40f
12:24 5 6 mph 1017.6mb 40f
12:18 6 8 mph 1017.5mb 40f
12:12 7 9 mph 1017.4mb 40f
12:06 6 9 mph 1017.3mb 40f
12:00 6 7 mph 1017.2mb 40f
Mo 03/27 11:54 5 7 mph 1017.3mb 41f
11:48 6 8 mph - -
11:42 5 7 mph 1017.3mb 41f
11:36 6 9 mph 1017.3mb 41f
11:30 6 8 mph 1017.1mb 41f
11:24 6 7 mph 1017.2mb 41f
11:18 6 9 mph 1017.2mb 41f
11:12 7 9 mph 1017.2mb 41f
11:06 6 8 mph 1017.2mb 41f
11:00 6 9 mph 1017.2mb 41f
10:54 6 8 mph 1017.2mb 41f
10:48 6 8 mph 1017.2mb 41f
10:42 6 9 mph 1017.2mb 41f
10:36 7 10 mph 1017.3mb 41f
10:30 7 10 mph 1017.3mb 41f
10:24 7 10 mph 1017.3mb 41f
10:18 7 10 mph - -
10:12 8 11 mph 1017.4mb 41f
10:06 9 13 mph 1017.4mb 41f
10:00 8 11 mph 1017.4mb 41f
9:54 9 13 mph 1017.4mb 41f
9:48 7 10 mph - -
9:42 7 10 mph 1017.4mb 41f
9:36 7 8 mph 1017.4mb 42f
9:30 7 11 mph 1017.4mb 41f
9:24 6 9 mph 1017.5mb 42f
9:18 7 9 mph 1017.5mb 42f
9:12 7 9 mph 1017.3mb 42f
9:06 7 8 mph 1017.2mb 42f
9:00 6 8 mph 1017.1mb 42f
8:54 7 9 mph 1017mb 42f
8:48 7 9 mph 1016.9mb -
8:42 8 10 mph 1016.9mb 42f
8:36 7 10 mph 1016.9mb 42f
8:30 8 10 mph 1017mb 42f
8:24 8 10 mph 1016.9mb 42f
8:18 8 10 mph - -
8:12 8 10 mph 1016.9mb 42f
8:06 7 10 mph 1016.7mb 42f
8:00 7 10 mph 1016.7mb 42f
7:54 6 7 mph 1016.6mb 42f
7:48 5 8 mph 1016.7mb 42f
7:42 6 8 mph 1016.6mb 42f
7:36 5 7 mph 1016.6mb 42f
7:30 5 8 mph 1016.5mb 42f
7:24 6 7 mph 1016.4mb 42f
7:18 5 6 mph - -
7:12 6 7 mph 1016mb 41f
7:06 7 9 mph 1015.7mb 42f
7:00 8 10 mph 1015.9mb 42f
6:54 8 10 mph 1016mb 42f
6:48 8 9 mph 1016.2mb 42f
6:42 8 10 mph 1016.2mb 42f
6:36 7 9 mph 1015.9mb 42f
6:30 8 13 mph 1016.1mb 43f
6:24 8 11 mph 1016.3mb 43f
6:18 6 9 mph 1016.2mb 43f
6:12 7 13 mph 1016.3mb 43f
6:06 7 10 mph 1016.4mb 43f
6:00 9 11 mph 1016.1mb 43f
5:54 6 8 mph 1016mb 44f
5:48 7 9 mph 1016mb -
5:42 7 9 mph 1015.8mb 44f
5:36 7 10 mph 1015.8mb 44f
5:30 3 5 mph 1015.7mb 44f
5:24 2 3 mph 1015.6mb 45f
5:18 1 2 mph 1016mb 46f
5:12 2
mph
1015.9mb 46f
5:06 1 3 mph 1016mb 46f
5:00  -  2 mph 1016.1mb 46f
4:54 1 2 mph 1016mb 46f
4:48 2 3 mph 1016.1mb 46f
4:42 1 3 mph 1016mb 44f
4:36 1 3 mph 1015.9mb 44f
4:30 1 2 mph 1016.1mb 44f
4:24  -  2 mph 1016.1mb 47f
4:18 2
mph
1016.1mb 47f
4:12  -  1 mph 1016.2mb 47f
4:06  -  1 mph 1016.2mb 47f
4:00 2
mph
1016.2mb 47f
3:54 2 5 mph 1016.3mb 46f
3:48 3 6 mph - -
3:42 3 7 mph 1016.5mb 46f
3:36 3 6 mph 1016.7mb 46f
3:30 3 6 mph 1016.6mb 46f
3:24 3 6 mph 1016.8mb 46f
3:18 5 8 mph 1016.8mb 45f
3:12 5 8 mph 1016.8mb 45f
3:06 5 9 mph 1016.8mb 45f
3:00 6 8 mph 1016.8mb 45f
2:54 6 9 mph 1016.9mb 45f
2:48 7 11 mph 1016.9mb 45f
2:42 6 11 mph 1016.9mb 44f
2:36 6 9 mph 1017.1mb 44f
2:30 5 8 mph 1017mb 44f
2:24 6 11 mph 1017.1mb 44f
2:18 7 11 mph 1017.3mb 44f
2:12 6 11 mph 1017.3mb 44f
2:06 6 11 mph 1017.3mb 44f
2:00 6 10 mph 1017.5mb 44f
1:54 7 13 mph 1017.6mb 43f
1:48 7 13 mph 1017.7mb 43f
1:42 6 10 mph 1017.8mb 43f
1:36 6 9 mph 1017.9mb 44f
1:30 6 9 mph 1018mb 43f
1:24 5 9 mph 1018.1mb 43f
1:18 5 8 mph 1018.2mb 43f
1:12 3 9 mph 1018.3mb 43f
1:06 3 8 mph 1018.5mb 43f
1:00 3 7 mph 1018.5mb 43f
12:54 5 7 mph 1018.7mb 43f
12:48 3 7 mph 1018.9mb 43f
12:42 5 7 mph 1018.9mb 43f
12:36 3 6 mph 1019.2mb 43f
12:30 2 6 mph 1019.3mb 43f
12:24 5 6 mph 1019.2mb 43f
12:18 5 6 mph 1019.4mb 43f
12:12 1 5 mph 1019.6mb 43f
12:06 2 5 mph 1019.5mb 43f
12:00 3 6 mph 1019.7mb 43f
11:54 3 6 mph 1019.9mb 42f
11:48 5 7 mph - -
11:42 5 7 mph 1020mb 42f
11:36 3 6 mph 1020.2mb 42f
11:30 3 6 mph 1020.2mb 42f
11:24 3 8 mph 1020.3mb 43f
11:18 2 3 mph 1020.3mb 43f
11:12 2 5 mph 1020.3mb 43f
11:06 3 7 mph 1020.4mb 44f
11:00 3 8 mph 1020.4mb 44f
10:54 5 13 mph 1020.4mb 44f
10:48 5 10 mph 1020.5mb 44f
10:42 2 7 mph 1020.6mb 44f
10:36 3 7 mph 1020.8mb 44f
10:30 3 6 mph 1020.9mb 44f
10:24 3 9 mph 1021mb 44f
10:18 3 8 mph 1020.9mb 44f
10:12 3 7 mph 1021mb 44f
10:06 2 6 mph 1021.2mb 44f
10:00 3 7 mph 1021.4mb 44f
9:54 5 9 mph 1021.4mb 44f
9:48 1 3 mph 1021.4mb 43f
9:42 2 3 mph 1021.7mb 42f
9:36 1 3 mph 1021.6mb 41f
9:30 2 5 mph 1021.6mb 41f
9:24  -  1 mph 1021.7mb 40f
9:18 1 3 mph - -
9:12 2 3 mph 1021.8mb 40f
9:06 2 5 mph 1021.7mb 40f
9:00 2 5 mph 1021.7mb 40f
8:54 2 5 mph 1022mb 40f
8:48 2 3 mph 1022.2mb 40f
8:42 1 2 mph 1022.3mb 40f
8:36 1 2 mph 1022.4mb 40f
8:30  -  2 mph 1022.5mb 40f
8:24 1 2 mph 1022.6mb 40f
8:18 1 2 mph 1022.8mb 40f
8:12  -  1 mph 1022.9mb 40f
8:06 2 3 mph 1023mb 39f
8:00  -  1 mph 1022.9mb 39f
7:54 2
mph
1023.1mb 39f
7:48 1 2 mph 1023.3mb 39f
7:42  -  2 mph 1023.3mb 39f
7:36 2 3 mph 1023.4mb 39f
7:30 5 6 mph 1023.4mb 39f
7:24 3 6 mph 1023.3mb 39f
7:18 3 5 mph 1023.5mb 39f
7:12 2 5 mph 1023.5mb 39f
7:06 5 6 mph 1023.6mb 39f
7:00 5 7 mph 1023.6mb 39f
6:54 3 6 mph 1023.6mb 39f
6:48 3 5 mph 1023.8mb 39f
6:42 5 8 mph 1023.9mb 38f
6:36 5 8 mph 1023.7mb 38f
6:30 5 6 mph 1023.7mb 38f
6:24 2 3 mph 1023.9mb 38f
6:18 3 8 mph 1024.2mb 38f
6:12 3 6 mph 1024.1mb 38f
6:06 5 7 mph 1024.1mb 38f
6:00 7 9 mph 1024.1mb 38f
5:54 6 8 mph 1024.2mb 38f
5:48 6 8 mph 1024.4mb 38f
5:42 7 10 mph 1024.6mb 37f
5:36 7 8 mph 1024.7mb 37f
5:30 7 8 mph 1024.9mb 37f
5:24 7 9 mph 1024.9mb 37f
5:18 7 10 mph 1024.9mb 37f
5:12 7 9 mph 1025mb 37f
5:06 6 8 mph 1025mb 37f
5:00 7 9 mph 1025.2mb 37f
4:54 6 7 mph 1025.3mb 37f
4:48 7 9 mph 1025.4mb 37f
4:42 6 8 mph 1025.4mb 37f
4:36 6 8 mph 1025.4mb 37f
4:30 6 8 mph 1025.5mb 37f
4:24 8 10 mph 1025.6mb 37f
4:18 7 10 mph 1025.5mb 37f
4:12 8 10 mph 1025.5mb 37f
4:06 8 11 mph 1025.5mb 37f
4:00 7 10 mph 1025.5mb 37f
3:54 7 9 mph 1025.7mb 36f
3:48 6 8 mph 1025.9mb 36f
3:42 6 8 mph 1026.1mb 36f
3:36 6 8 mph 1026.2mb 36f
3:30 7 9 mph 1026.3mb 36f
3:24 6 9 mph 1026.4mb 36f
3:18 7 9 mph 1026.5mb 36f
3:12 8 10 mph 1026.5mb 36f
3:06 7 9 mph 1026.7mb 36f
3:00 6 8 mph 1026.8mb 36f
2:54 6 8 mph 1026.8mb 36f
2:48 8 10 mph 1026.9mb 36f
2:42 7 10 mph 1027mb 36f
2:36 6 9 mph 1027.2mb 36f
2:30 5 8 mph 1027.3mb 36f
2:24 6 9 mph 1027.4mb 36f
2:18 5 9 mph 1027.4mb 36f
2:12 6 11 mph 1027.5mb 36f
2:06 5 8 mph 1027.5mb 36f
2:00 3 6 mph 1027.6mb 36f
1:54 5 8 mph 1027.6mb 36f
1:48 5 11 mph 1027.7mb 36f
1:42 5 10 mph 1027.8mb 36f
1:36 5 8 mph 1028mb 36f
1:30 5 8 mph 1028.1mb 36f
1:24 6 10 mph 1028.2mb 36f
1:18 6 11 mph 1028.3mb 36f
1:12 5 10 mph 1028.4mb 36f
1:06 5 9 mph 1028.5mb 36f
1:00 5 8 mph 1028.7mb 36f
12:54 5 8 mph 1028.9mb 36f
12:48 6 10 mph 1029mb 36f
12:42 6 10 mph 1029.1mb 37f
12:36 5 9 mph 1029.2mb 37f
12:30 6 10 mph 1029.3mb 37f
12:24 6 11 mph 1029.3mb 37f
12:18 5 10 mph 1029.4mb 38f
12:12 5 8 mph 1029.5mb 38f
12:06 7 10 mph 1029.5mb 38f
12:00 5 8 mph 1029.5mb 38f
So 03/26 11:54 6 10 mph 1029.6mb 38f
11:48 6 8 mph - -
11:42 5 8 mph 1029.7mb 38f
11:36 6 9 mph 1029.8mb 38f
11:30 5 7 mph 1029.9mb 38f
11:24 7 11 mph 1029.9mb 38f
11:18 9 14 mph 1029.8mb 38f
11:12 10 14 mph 1029.7mb 38f
11:06 9 11 mph 1029.8mb 38f
11:00 9 13 mph 1029.9mb 38f
10:54 9 13 mph 1030.1mb 38f
10:48 9 13 mph 1030mb 38f
10:42 10 16 mph 1030mb 38f
10:36 9 15 mph 1030mb 38f
10:30 10 16 mph 1029.8mb 38f
10:24 8 15 mph 1029.7mb 38f
10:18 8 14 mph - -
10:12 7 13 mph 1030.2mb 38f
10:06 9 14 mph 1030.3mb 38f
10:00 7 11 mph 1030.3mb 38f
9:54 6 10 mph 1030.4mb 38f
9:48 7 13 mph 1030.4mb 38f
9:42 7 13 mph 1030.3mb 38f
9:36 7 14 mph 1030.3mb 38f
9:30 8 14 mph 1030.4mb 38f
9:24 6 9 mph 1030.5mb 38f
9:18 6 10 mph - -
9:12 8 14 mph 1030.9mb 38f
9:06 7 14 mph 1030.8mb 38f
9:00 7 15 mph 1030.9mb 38f
8:54 6 14 mph 1031mb 38f
8:48 7 11 mph 1031mb -
8:42 7 11 mph 1031.1mb 38f
8:36 6 9 mph 1031.3mb 38f
8:30 7 13 mph 1031.4mb 38f
8:24 7 11 mph 1031.3mb 38f
8:18 6 10 mph 1031.4mb 38f
8:12 5 10 mph 1031.3mb 38f
8:06 5 8 mph 1031.3mb 38f
8:00 5 8 mph 1031.4mb 38f
7:54 3 8 mph 1031.4mb 38f
7:48 5 9 mph 1031.6mb -
7:42 5 8 mph 1031.5mb 38f
7:36 5 9 mph 1031.5mb 38f
7:30 6 9 mph 1031.5mb 38f
7:24 6 10 mph 1031.3mb 38f
7:18 6 9 mph 1031.3mb 38f
7:12 5 9 mph 1031.6mb 38f
7:06 6 11 mph 1031.8mb 38f
7:00 5 9 mph 1031.5mb 38f
6:54 3 8 mph 1031.6mb 38f
6:48 5 8 mph 1031.7mb -
6:42 6 11 mph 1031.8mb 38f
6:36 6 9 mph 1031.7mb 38f
6:30 5 10 mph 1031.8mb 38f
6:24 6 11 mph 1031.8mb 39f
6:18 6 10 mph 1031.9mb -
6:12 7 11 mph 1031.8mb 39f
6:06 6 9 mph 1031.8mb 39f
6:00 5 9 mph 1031.9mb 39f
5:54 6 10 mph 1031.9mb 39f
5:48 6 9 mph 1032.1mb 39f
5:42 6 11 mph 1032.1mb 39f
5:36 6 10 mph 1032.1mb 39f
5:30 5 11 mph 1032mb 40f
5:24 7 11 mph 1032mb 40f
5:18 7 10 mph 1031.9mb 40f
5:12 6 10 mph 1032mb 40f
5:06 6 10 mph 1032.1mb 40f
5:00 6 13 mph 1032.2mb 40f
4:54 7 13 mph 1032.1mb 40f
4:48 7 11 mph 1032.2mb 40f
4:42 6 9 mph 1032.5mb 40f
4:36 6 10 mph 1032.6mb 40f
4:30 6 10 mph 1032.6mb 40f
4:24 6 10 mph 1032.6mb 40f
4:18 7 11 mph 1032.7mb 40f
4:12 7 14 mph 1032.9mb 40f
4:06 6 11 mph 1032.9mb 40f
4:00 7 13 mph 1032.9mb 40f
3:54 6 11 mph 1032.9mb 40f
3:48 6 10 mph 1033mb 41f
3:42 6 13 mph 1033.1mb 41f
3:36 6 11 mph 1033.1mb 41f
3:30 9 16 mph 1033.1mb 41f
3:24 7 14 mph 1033mb 40f
3:18 6 13 mph 1033.1mb 41f
3:12 8 15 mph 1033.1mb 41f
3:06 7 13 mph 1033.1mb 40f
3:00 6 11 mph 1033.2mb 40f
2:54 6 10 mph 1033.2mb 40f
2:48 6 13 mph 1033.2mb 40f
2:42 7 11 mph 1033.4mb 40f
2:36 6 11 mph 1033.4mb 40f
2:30 6 10 mph 1033.3mb 40f
2:24 6 13 mph 1033.4mb 41f
2:18 6 9 mph 1033.5mb 41f
2:12 5 10 mph 1033.4mb 41f
2:06 6 14 mph 1033.4mb 41f
2:00 5 9 mph 1033.4mb 41f
1:54 7 11 mph 1033.4mb 41f
1:48 7 11 mph 1033.3mb 41f
1:42 5 9 mph 1033.3mb 41f
1:36 5 11 mph 1033.4mb 41f
1:30 5 8 mph 1033.5mb 42f
1:24 6 10 mph 1033.5mb 42f
1:18 6 11 mph 1033.5mb 42f
1:12 6 10 mph 1033.6mb 42f
1:06 6 10 mph 1033.7mb 42f
1:00 5 8 mph 1033.7mb 43f
12:54 2 6 mph 1033.6mb 43f
12:48 5 9 mph 1033.7mb 43f
12:42 3 6 mph 1033.7mb 43f
12:36 6 8 mph 1033.7mb 43f
12:30 8 9 mph 1033.7mb 42f
12:24 7 10 mph 1033.7mb 43f
12:18 8 11 mph 1033.7mb 43f
12:12 9 13 mph 1033.7mb 42f
12:06 9 13 mph 1033.7mb 42f
12:00 9 11 mph 1033.7mb 42f
11:54 9 10 mph 1033.8mb 42f
11:48 8 10 mph 1033.9mb 42f
11:42 10 14 mph 1033.7mb 42f
11:36 9 13 mph 1033.6mb 42f
11:30 9 11 mph 1033.7mb 42f
11:24 10 14 mph 1033.6mb 42f
11:18 13 16 mph 1033.5mb 42f
11:12 10 13 mph 1033.5mb 42f
11:06 9 13 mph 1033.6mb 42f
11:00 9 11 mph 1033.7mb 42f
10:54 8 11 mph 1033.8mb 42f
10:48 8 10 mph 1033.9mb 42f
10:42 9 13 mph 1033.9mb 42f
10:36 8 11 mph 1033.9mb 42f
10:30 10 13 mph 1033.9mb 42f
10:24 9 13 mph 1033.9mb 41f
10:18 10 14 mph 1033.7mb 40f
10:12 10 14 mph 1033.7mb 40f
10:06 10 13 mph 1033.7mb 40f
10:00 11 16 mph 1033.7mb 40f
9:54 13 16 mph 1033.7mb 40f
9:48 10 14 mph 1033.7mb 40f
9:42 11 15 mph 1033.7mb 40f
9:36 14 17 mph 1033.6mb 40f
9:30 11 16 mph 1033.6mb 39f
9:24 13 17 mph 1033.6mb 40f
9:18 11 16 mph 1033.6mb 40f
9:12 10 13 mph 1033.6mb 39f
9:06 10 13 mph 1033.7mb 38f
9:00 10 14 mph 1033.7mb 38f
8:54 10 14 mph 1033.7mb 38f
8:48 10 14 mph 1033.7mb 37f
8:42 10 14 mph 1033.8mb 37f
8:36 11 14 mph 1033.7mb 37f
8:30 13 16 mph 1033.4mb 37f
8:24 10 14 mph 1033.3mb 36f
8:18 10 13 mph 1033.3mb 36f
8:12 9 11 mph 1033.5mb 35f
8:06 11 14 mph 1033.6mb 35f
8:00 11 15 mph 1033.4mb 35f
7:54 11 15 mph 1033.2mb 34f
7:48 13 15 mph 1033.3mb 34f
7:42 13 15 mph 1033.2mb 34f
7:36 11 15 mph 1033.2mb 34f
7:30 11 15 mph 1033.3mb 33f
7:24 11 14 mph 1033.3mb 33f
7:18 10 14 mph - -
7:12 10 13 mph 1033.3mb 33f
7:06 10 14 mph 1033.2mb 33f
7:00 9 11 mph 1033.2mb 33f
6:54 9 13 mph 1033.2mb 33f
6:48 8 11 mph 1033.1mb 33f
6:42 9 13 mph 1033.1mb 33f
6:36 9 11 mph 1033mb 33f
6:30 9 13 mph 1032.9mb 33f
6:24 11 14 mph 1032.9mb 33f
6:18 11 15 mph 1032.7mb 33f
6:12 10 14 mph 1032.7mb 33f
6:06 10 14 mph 1032.7mb 33f
6:00 8 14 mph 1032.6mb 33f
5:54 10 14 mph 1032.5mb 33f
5:48 10 14 mph 1032.4mb 33f
5:42 10 14 mph 1032.3mb 33f
5:36 10 13 mph 1032.2mb 33f
5:30 9 11 mph 1032.1mb 33f
5:24 8 11 mph 1032.1mb 33f
5:18 9 11 mph 1032mb 33f
5:12 8 10 mph 1032.1mb 33f
5:06 9 11 mph 1032.1mb 33f
5:00 8 10 mph 1032mb 33f
4:54 8 10 mph 1032mb 33f
4:48 8 11 mph 1032mb 33f
4:42 9 10 mph 1032mb 33f
4:36 9 13 mph 1032mb 33f
4:30 10 13 mph 1031.7mb 33f
4:24 9 11 mph 1031.6mb 33f
4:18 8 9 mph 1031.6mb 33f
4:12 8 10 mph 1031.7mb 33f
4:06 9 11 mph 1031.6mb 33f
4:00 8 10 mph 1031.6mb 33f
3:54 9 11 mph 1031.7mb 33f
3:48 9 13 mph 1031.6mb 33f
3:42 11 14 mph 1031.5mb 33f
3:36 11 15 mph 1031.3mb 33f
3:30 11 14 mph 1031.4mb 33f
3:24 11 14 mph 1031.5mb 33f
3:18 10 14 mph 1031.3mb 33f
3:12 10 14 mph 1031.2mb 34f
3:06 10 14 mph 1031.2mb 34f
3:00 10 13 mph 1031.3mb 34f
2:54 9 13 mph 1031.3mb 34f
2:48 10 13 mph 1031.4mb 34f
2:42 10 14 mph 1031.4mb 34f
2:36 9 13 mph 1031.3mb 34f
2:30 11 16 mph 1031.3mb 34f
2:24 11 15 mph 1031.3mb 34f
2:18 9 11 mph - -
2:12 10 15 mph 1031.2mb 35f
2:06 10 14 mph 1031.2mb 35f
2:00 9 11 mph 1031.1mb 35f
1:54 8 11 mph 1031.1mb 35f
1:48 8 11 mph 1031.1mb -
1:42 7 10 mph 1031.1mb -
1:36 8 10 mph 1031mb -
1:30 7 10 mph 1031mb 35f
1:24 7 9 mph 1031mb 35f
1:18 7 10 mph 1031mb 35f
1:12 7 9 mph 1031mb 35f
1:06 7 9 mph 1031mb 35f
1:00 7 8 mph 1031mb 35f
12:54 8 9 mph 1030.9mb 35f
12:48 7 10 mph 1030.8mb 36f
12:42 7 9 mph 1030.8mb 36f
12:36 7 10 mph 1030.7mb 36f
12:30 8 10 mph 1030.7mb 36f
12:24 8 10 mph 1030.7mb 36f
12:18 8 10 mph 1030.8mb 36f
12:12 6 8 mph 1030.7mb 36f
12:06 5 6 mph 1030.8mb 36f
12:00 6 7 mph 1030.8mb 36f
Sa 03/25 11:54 6 7 mph 1030.8mb 36f
11:48 6 7 mph - -
11:42 6 7 mph 1030.7mb 36f
11:36 6 8 mph 1030.7mb 36f
11:30 6 7 mph 1030.6mb 36f
11:24 6 7 mph 1030.6mb 36f
11:18 5 8 mph 1030.5mb 36f
11:12 5 6 mph 1030.4mb 36f
11:06 5 6 mph 1030.3mb 36f
11:00 5 6 mph 1030.2mb 36f
10:54 5 6 mph 1030.3mb 36f
10:48 6 7 mph - -
10:42 5 6 mph 1030.3mb 36f
10:36 5 6 mph 1030.2mb 36f
10:30 5 6 mph 1030.1mb 37f
10:24 6
mph
1030.1mb 37f
10:18 5 6 mph 1030.1mb 37f
10:12 5 6 mph 1030mb 37f
10:06 5 6 mph 1030.1mb 37f
10:00 3 5 mph 1029.9mb 37f
9:54 5 6 mph 1029.9mb 37f
9:48 6 7 mph - -
9:42 6 8 mph 1029.7mb 38f
9:36 6 7 mph 1029.7mb 38f
9:30 5 7 mph 1029.8mb 38f
9:24 5 6 mph 1029.8mb 38f
9:18 6 7 mph 1029.7mb 38f
9:12 5 6 mph 1029.7mb 38f
9:06 6 7 mph 1029.6mb 39f
9:00 6 8 mph 1029.6mb 39f
8:54 7 9 mph 1029.5mb 39f
8:48 7 9 mph 1029.4mb -
8:42 8 10 mph 1029.4mb 39f
8:36 7 9 mph 1029.3mb 39f
8:30 7 8 mph 1029.2mb 39f
8:24 7 8 mph 1029mb 39f
8:18 7 8 mph - -
8:12 7 8 mph 1028.9mb 39f
8:06 8 9 mph 1028.9mb 39f
8:00 6 7 mph 1028.8mb 39f
7:54 6 7 mph 1028.6mb 39f
7:48 6 7 mph 1028.5mb 39f
7:42 6 7 mph 1028.5mb 39f
7:36 7 9 mph 1028.1mb 39f
7:30 8 11 mph 1028mb 39f
7:24 8 11 mph 1028.1mb 39f
7:18 8 11 mph 1027.9mb -
7:12 10 14 mph 1028.1mb 39f
7:06 8 11 mph 1028mb 39f
7:00 9 11 mph 1027.6mb 39f
6:54 9 11 mph 1027.6mb 39f
6:48 7 8 mph 1027.3mb -
6:42 8 9 mph 1027.1mb 39f
6:36 9 11 mph 1027.3mb 39f
6:30 5 8 mph 1027.5mb 39f
6:24 7 9 mph 1026.7mb 39f
6:18 6 8 mph 1026.9mb 39f
6:12 6 8 mph 1026.8mb 39f
6:06 7 8 mph 1026.6mb 39f
6:00 6 8 mph 1026.5mb 39f
5:54 6 8 mph 1026.4mb 39f
5:48 6 9 mph 1026.4mb -
5:42 7 9 mph 1026.3mb 39f
5:36 6 8 mph 1026.2mb 39f
5:30 5 6 mph 1025.5mb 39f
5:24 3 5 mph 1025.5mb 39f
5:18  -  1 mph - -
5:12 2 3 mph 1025.3mb 39f
5:06 3 5 mph 1025.5mb 39f
5:00 1 2 mph 1024.8mb 39f
4:54 5 7 mph 1026mb 39f
4:48 6 8 mph 1026mb 39f
4:42 7 9 mph 1026mb 39f
4:36 7 10 mph 1026mb 39f
4:30 8 11 mph 1026.2mb 39f
4:24 10 14 mph 1026.4mb 39f
4:18 10 13 mph 1026.7mb 39f
4:12 11 15 mph 1026.7mb 39f
4:06 9 11 mph 1026.6mb 39f
4:00 9 13 mph 1026.5mb 39f
3:54 9 13 mph 1026.5mb 40f
3:48 9 11 mph 1026.5mb 40f
3:42 9 13 mph 1026.5mb 40f
3:36 9 13 mph 1026.4mb 40f
3:30 11 15 mph 1026.3mb 40f
3:24 13 16 mph 1026mb 40f
3:18 14 18 mph 1025.8mb 39f
3:12 14 17 mph 1026mb 39f
3:06 14 17 mph 1025.9mb 40f
3:00 11 15 mph 1025.8mb 40f
2:54 13 16 mph 1025.9mb 40f
2:48 13 15 mph 1025.8mb 40f
2:42 15 20 mph 1025.6mb 41f
2:36 14 17 mph 1025.1mb 41f
2:30 14 17 mph 1024.9mb 41f
2:24 13 16 mph 1024.9mb 42f
2:18 11 14 mph 1024.9mb 42f
2:12 13 16 mph 1024.6mb 42f
2:06 14 17 mph 1024.5mb 42f
2:00 13 17 mph 1024.4mb 43f
1:54 11 14 mph 1024.4mb 43f
1:48 11 13 mph 1024.4mb 43f
1:42 9 13 mph 1024.3mb 43f
1:36 9 11 mph 1024.6mb 43f
1:30 9 11 mph 1024.6mb 44f
1:24 7 10 mph 1024.5mb 43f
1:18 8 10 mph 1024.2mb 43f
1:12 7 9 mph 1024.1mb 44f
1:06 9 13 mph 1023.9mb 44f
1:00 9 11 mph 1023.7mb 46f
12:54 7 9 mph 1023.7mb 45f
12:48 8 11 mph 1023.9mb 44f
12:42 9 11 mph 1023.7mb 44f
12:36 9 11 mph 1023.6mb 45f
12:30 9 11 mph 1023.5mb 45f
12:24 10 14 mph 1023.4mb 45f
12:18 9 11 mph 1023.4mb 44f
12:12 10 14 mph 1023.5mb 44f
12:06 11 14 mph 1023.4mb 44f
12:00 8 10 mph 1023.5mb 45f
11:54 6 7 mph 1023.7mb 44f
11:48 6 7 mph 1023.9mb 44f
11:42 6 8 mph 1023.9mb 44f
11:36 7 10 mph 1023.9mb 43f
11:30 8 9 mph 1024mb 44f
11:24 8 10 mph 1024.1mb 44f
11:18 8 10 mph 1023.9mb 44f
11:12 7 8 mph 1023.9mb 44f
11:06 7 8 mph 1024.2mb 44f
11:00 5 6 mph 1024.1mb 44f
10:54 3 5 mph 1024.1mb 45f
10:48 8 11 mph 1023.8mb 46f
10:42 7 8 mph 1023.6mb 45f
10:36 7 9 mph 1023.4mb 44f
10:30 7 8 mph 1023.4mb 44f
10:24 8 9 mph 1023.6mb 44f
10:18 7 8 mph 1023.5mb 44f
10:12 7 10 mph 1023.7mb 45f
10:06 9 11 mph 1023.7mb 45f
10:00 8 10 mph 1023.4mb 44f
9:54 9 11 mph 1023.3mb 44f
9:48 8 10 mph 1022.9mb 44f
9:42 9 10 mph 1022.7mb 44f
9:36 8 10 mph 1022.6mb 43f
9:30 8 10 mph 1022.5mb 43f
9:24 8 9 mph 1022.6mb 43f
9:18 7 8 mph 1022.6mb 43f
9:12 6 7 mph 1022.8mb 43f
9:06 6 7 mph 1022.6mb 42f
9:00 6 7 mph 1022.5mb 42f
8:54 6 8 mph 1022.5mb 42f
8:48 8 9 mph 1022.3mb 42f
8:42 5 7 mph 1021.9mb 41f
8:36 7 9 mph 1022.1mb 41f
8:30 5 6 mph 1021.8mb 41f
8:24 5
mph
1021.7mb 41f
8:18 5 6 mph 1021.7mb 42f
8:12 3 6 mph 1021.9mb 42f
8:06 3 5 mph 1022.1mb 42f
8:00 5 6 mph 1021.8mb 41f
7:54 1 3 mph 1021.8mb 41f
7:48  -  1 mph 1021.9mb 42f
7:42  -  2 mph 1022mb 42f
7:36  -  1 mph 1021.9mb 42f
7:30  -  1 mph 1021.8mb 42f
7:24  -  mph 1021.8mb 42f
7:18  -  mph 1021.5mb 42f
7:12  -  mph 1021.2mb 42f
7:06  -  1 mph 1021mb 42f
7:00  -  mph 1020.6mb 42f
6:54  -  1 mph 1020.4mb 42f
6:48  -  mph 1020.4mb 42f
6:42 1
mph
1020.4mb 42f
6:36 2 3 mph 1020.2mb 41f
6:30 5 7 mph 1020.2mb 41f
6:24 6 9 mph 1019.7mb 41f
6:18 3 6 mph 1019.5mb 41f
6:12 1 2 mph 1019.9mb 42f
6:06 3 5 mph 1020.1mb 42f
6:00 3 5 mph 1020.1mb 42f
5:54 3 5 mph 1019.9mb 42f
5:48 3 5 mph 1019.8mb 42f
5:42 2 5 mph 1019.6mb 42f
5:36 2 3 mph 1019.7mb 42f
5:30 2 3 mph 1019.6mb 42f
5:24 1 2 mph 1019.8mb 42f
5:18 3
mph
1019.5mb 42f
5:12 2 5 mph 1019.6mb 42f
5:06 3 6 mph 1019.4mb 42f
5:00 2 3 mph 1019.2mb 42f
4:54 3 5 mph 1019.1mb 42f
4:48 2 5 mph 1018.9mb 43f
4:42 3 5 mph 1019mb 43f
4:36 3 6 mph 1018.9mb 43f
4:30 5 6 mph 1018.8mb 42f
4:24 6 8 mph 1018.7mb 43f
4:18 5 7 mph 1018.8mb 43f
4:12 7 10 mph 1019.1mb 43f
4:06 6 8 mph 1018.8mb 44f
4:00 7 10 mph 1018.5mb 44f
3:54 6 10 mph 1018.3mb 44f
3:48 6 9 mph 1018.4mb 44f
3:42 8 11 mph 1018.5mb 44f
3:36 8 11 mph 1018.3mb 44f
3:30 8 10 mph 1018.3mb 44f
3:24 6 9 mph 1018.5mb 44f
3:18 5 6 mph 1018.6mb 43f
3:12 6 7 mph 1018.7mb 43f
3:06 5 6 mph 1018.9mb 43f
3:00 6 8 mph 1019.1mb 43f
2:54 6 8 mph 1019mb 43f
2:48 8 11 mph 1019mb -
2:42 9 13 mph 1018.3mb -
2:36 8 14 mph 1018.3mb -
2:30 7 10 mph 1018.5mb 43f
2:24 7 10 mph 1018.6mb 43f
2:18 6 9 mph - -
2:12 8 11 mph 1018.9mb 43f
2:06 9 13 mph 1018.8mb 43f
2:00 7 11 mph 1018.8mb 43f
1:54 7 9 mph 1018.6mb 43f
1:48 6 9 mph 1018.7mb 43f
1:42 6 9 mph 1018.6mb 43f
1:36 7 9 mph 1018.9mb 43f
1:30 6 9 mph 1019.1mb 43f
1:24 6 8 mph 1019.2mb 43f
1:18 5 7 mph 1019.4mb 42f
1:12 5 6 mph 1019.4mb 42f
1:06 5 6 mph 1019.6mb 42f
1:00 3 6 mph 1019.5mb 42f
12:54 5 6 mph 1019.4mb 43f
12:48 5 6 mph 1019.4mb 43f
12:42 6 8 mph 1019.3mb 43f
12:36 6 9 mph 1019.4mb 43f
12:30 7 10 mph 1019.2mb 44f
12:24 7 9 mph 1019.3mb 44f
12:18 7 10 mph 1019.4mb 43f
12:12 8 11 mph 1019.2mb 44f
12:06 8 13 mph 1019.3mb 44f
12:00 7 11 mph 1019.3mb 44f
Fr 03/24 11:54 9 14 mph 1019.4mb 44f
11:48 7 11 mph - -
11:42 7 10 mph 1019.2mb 44f
11:36 6 9 mph 1019.7mb 44f
11:30 7 10 mph 1019.7mb 44f
11:24 8 11 mph 1019.7mb 44f
11:18 7 13 mph 1019.6mb 44f
11:12 9 16 mph 1019.6mb 45f
11:06 9 14 mph 1019.5mb 45f
11:00 10 17 mph 1019.5mb 45f
10:54 10 18 mph 1019.6mb 45f
10:48 11 17 mph - -
10:42 11 17 mph 1019.3mb 45f
10:36 14 18 mph 1019.2mb 45f
10:30 14 21 mph 1019.2mb 45f
10:24 13 20 mph 1019.1mb 45f
10:18 11 21 mph 1019.2mb 45f
10:12 11 20 mph 1019.3mb 44f
10:06 11 20 mph 1019.5mb 45f
10:00 11 17 mph 1019.8mb 45f
9:54 10 16 mph 1019.9mb 44f
9:48 11 17 mph 1020mb 44f
9:42 13 20 mph 1020mb 45f
9:36 13 18 mph 1020mb 45f
9:30 11 17 mph 1019.9mb 45f
9:24 10 15 mph 1020.2mb 45f
9:18 8 13 mph - -
9:12 8 13 mph 1020.7mb 45f
9:06 9 14 mph 1020.7mb 45f
9:00 9 14 mph 1020.6mb 45f
8:54 10 18 mph 1020.4mb 44f
8:48 10 15 mph - -
8:42 10 18 mph 1020.4mb 44f
8:36 10 17 mph 1020.4mb 44f
8:30 10 16 mph 1020.4mb 44f
8:24 10 16 mph 1020.5mb 45f
8:18 9 14 mph - -
8:12 10 17 mph 1020.4mb 44f
8:06 10 16 mph 1020.4mb 44f
8:00 9 15 mph 1020.4mb 44f
7:54 10 16 mph 1020.3mb 44f
7:48 9 15 mph 1020.1mb 44f
7:42 9 14 mph 1020.1mb 44f
7:36 9 15 mph 1020.1mb 43f
7:30 9 14 mph 1020.1mb 44f
7:24 9 15 mph 1020.1mb 44f
7:18 9 16 mph - -
7:12 10 14 mph 1020.2mb 44f
7:06 10 20 mph 1020.2mb 44f
7:00 10 16 mph 1020.2mb 44f
6:54 11 16 mph 1020.3mb 44f
6:48 10 16 mph 1020.3mb 44f
6:42 10 15 mph 1020.4mb 44f
6:36 11 16 mph 1020.4mb 44f
6:30 13 18 mph 1020.5mb 44f
6:24 13 18 mph 1020.6mb 44f
6:18 11 17 mph - -
6:12 13 20 mph 1021mb 44f
6:06 10 16 mph 1021.2mb 44f
6:00 10 17 mph 1021.3mb 44f
5:54 11 20 mph 1021.1mb 44f
5:48 13 22 mph - -
5:42 10 17 mph 1021.1mb 44f
5:36 14 20 mph 1021.2mb 44f
5:30 14 23 mph 1021.3mb 44f
5:24 14 21 mph 1021.5mb 44f
5:18 14 22 mph 1021.5mb 44f
5:12 14 23 mph 1021.6mb 44f
5:06 13 22 mph 1021.7mb 44f
5:00 13 21 mph 1021.9mb 44f
4:54 14 26 mph 1022.1mb 43f
4:48 13 22 mph 1022.2mb 43f
4:42 14 24 mph 1022.3mb 44f
4:36 14 21 mph 1022.2mb 43f
4:30 14 23 mph 1022.2mb 43f
4:24 14 25 mph 1022.2mb 43f
4:18 15 22 mph 1022.3mb 43f
4:12 14 20 mph 1022.4mb 43f
4:06 15 22 mph 1022.5mb 43f
4:00 13 20 mph 1022.8mb 43f
3:54 14 21 mph 1022.9mb 42f